Time;durP1;ratioP1;P1;durP2;ratioP2;P2;SDS_P1;SDS_P2;PMS_P1;PMS_P2;Temp;Humidity;BMP_temperature;BMP_pressure;BME280_temperature;BME280_humidity;BME280_pressure;Samples;Min_cycle;Max_cycle;Signal;HPM_P1;HPM_P2
2023/10/07 00:00:26;;;;;;;8.03;3.23;;;;;;;-145.69;63.79;52222.59;5136415;27;20237;-82
2023/10/07 00:02:53;;;;;;;6.20;2.60;;;;;;;-145.69;63.06;52236.44;5111993;27;20196;-83
2023/10/07 00:05:26;;;;;;;7.93;3.10;;;;;;;-145.69;63.36;52228.53;5032040;28;20666;-82
2023/10/07 00:08:00;;;;;;;7.43;2.53;;;;;;;-145.69;63.88;52226.53;5032071;28;20208;-82
2023/10/07 00:10:27;;;;;;;9.40;3.27;;;;;;;-145.69;63.24;52222.59;5032212;28;20200;-84
2023/10/07 00:12:56;;;;;;;8.23;3.13;;;;;;;-145.69;63.46;52248.34;5036059;27;20211;-82
2023/10/07 00:15:28;;;;;;;9.10;2.97;;;;;;;-145.69;63.46;52214.66;5012245;28;20242;-83
2023/10/07 00:17:57;;;;;;;8.67;3.10;;;;;;;-145.69;63.42;52224.56;5012225;28;20201;-83
2023/10/07 00:20:24;;;;;;;11.63;3.20;;;;;;;-145.69;63.80;52230.50;5103550;27;20656;-83
2023/10/07 00:22:54;;;;;;;7.67;3.33;;;;;;;-145.69;63.52;52204.75;5136309;27;20197;-82
2023/10/07 00:25:22;;;;;;;8.93;3.10;;;;;;;-145.69;63.86;52186.94;5136252;27;20189;-82
2023/10/07 00:27:53;;;;;;;7.27;2.73;;;;;;;-145.69;63.42;52214.66;5136330;27;20204;-82
2023/10/07 00:30:27;;;;;;;6.03;2.83;;;;;;;-145.69;63.66;52200.81;5136262;27;20197;-81
2023/10/07 00:32:55;;;;;;;8.93;2.97;;;;;;;-145.69;64.40;52218.63;5112123;27;20225;-81
2023/10/07 00:35:22;;;;;;;14.70;3.70;;;;;;;-145.69;63.29;52242.38;5020748;28;20323;-83
2023/10/07 00:37:49;;;;;;;7.53;2.87;;;;;;;-145.69;63.77;52216.66;5031808;28;20207;-82
2023/10/07 00:40:30;;;;;;;8.23;3.17;;;;;;;-145.69;63.43;52200.81;5031459;28;20203;-82
2023/10/07 00:42:58;;;;;;;7.07;2.77;;;;;;;-145.69;63.56;52220.59;5031660;28;20597;-81
2023/10/07 00:45:25;;;;;;;7.47;2.97;;;;;;;-145.69;63.86;52212.69;5031483;28;20208;-82
2023/10/07 00:47:53;;;;;;;6.40;2.87;;;;;;;-145.69;63.72;52179.03;5031654;28;20200;-82
2023/10/07 00:50:27;;;;;;;8.33;2.53;;;;;;;-145.69;63.61;52226.53;5030161;28;20208;-81
2023/10/07 00:52:57;;;;;;;9.30;3.10;;;;;;;-145.69;63.81;52242.38;5030122;28;20591;-82
2023/10/07 00:55:30;;;;;;;10.77;2.90;;;;;;;-145.69;63.81;52226.53;5031196;28;20277;-82
2023/10/07 00:58:07;;;;;;;7.30;2.93;;;;;;;-145.69;63.48;52202.78;5031171;28;20635;-82
2023/10/07 01:00:46;;;;;;;6.57;2.90;;;;;;;-145.69;63.48;52204.75;5030950;28;20202;-81
2023/10/07 01:03:23;;;;;;;7.00;2.93;;;;;;;-145.69;63.61;52224.56;5031088;28;20200;-82
2023/10/07 01:06:10;;;;;;;7.43;3.50;;;;;;;-145.69;63.46;52230.50;5031080;28;20838;-82
2023/10/07 01:08:41;;;;;;;7.70;3.00;;;;;;;-145.69;63.49;52192.88;5031141;28;20451;-81
2023/10/07 01:11:19;;;;;;;7.77;2.90;;;;;;;-145.69;63.24;52190.91;5029993;28;20593;-82
2023/10/07 01:13:50;;;;;;;6.20;2.60;;;;;;;-145.69;63.37;52242.38;5030799;28;20196;-81
2023/10/07 01:16:31;;;;;;;10.97;2.77;;;;;;;-145.69;63.14;52230.50;5030854;28;20307;-82
2023/10/07 01:19:06;;;;;;;6.57;2.50;;;;;;;-145.69;63.61;52242.38;5031093;28;20204;-82
2023/10/07 01:21:33;;;;;;;9.67;3.20;;;;;;;-145.69;63.44;52184.97;5029912;28;20204;-81
2023/10/07 01:24:06;;;;;;;6.97;2.73;;;;;;;-145.69;63.46;52194.88;5030948;28;20196;-82
2023/10/07 01:26:39;;;;;;;10.70;2.70;;;;;;;-145.69;63.12;52216.66;5030813;28;20245;-82
2023/10/07 01:29:12;;;;;;;9.27;3.00;;;;;;;-145.69;63.01;52226.53;5030756;28;20307;-82
2023/10/07 01:31:48;;;;;;;6.73;2.90;;;;;;;-145.69;63.56;52238.44;5030926;28;20547;-82
2023/10/07 01:34:17;;;;;;;8.03;3.13;;;;;;;-145.69;63.53;52210.72;5030691;28;20203;-82
2023/10/07 01:36:45;;;;;;;5.80;2.73;;;;;;;-145.69;63.38;52206.75;5030392;28;20243;-82
2023/10/07 01:39:13;;;;;;;11.27;2.87;;;;;;;-145.69;63.56;52226.53;5030793;28;20601;-82
2023/10/07 01:41:40;;;;;;;5.93;2.53;;;;;;;-145.69;63.22;52194.88;5030509;28;20642;-81
2023/10/07 01:44:08;;;;;;;6.20;2.60;;;;;;;-145.69;62.69;52196.84;5030589;28;20208;-82
2023/10/07 01:46:38;;;;;;;6.73;2.97;;;;;;;-145.69;63.04;52206.75;5030473;28;20651;-83
2023/10/07 01:49:11;;;;;;;6.77;2.80;;;;;;;-145.69;63.44;52226.53;5045183;27;20223;-82
2023/10/07 01:51:43;;;;;;;7.63;2.40;;;;;;;-145.69;63.06;52226.53;5030677;28;20200;-82
2023/10/07 01:54:11;;;;;;;8.00;2.63;;;;;;;-145.69;63.00;52226.53;5030205;28;20281;-83
2023/10/07 01:56:40;;;;;;;10.37;2.57;;;;;;;-145.69;63.01;52218.63;5030612;28;20253;-82
2023/10/07 01:59:17;;;;;;;8.00;3.13;;;;;;;-145.69;63.26;52228.53;5030770;28;20203;-82
2023/10/07 02:01:51;;;;;;;6.60;2.50;;;;;;;-145.69;63.33;52234.47;5029982;28;20200;-82
2023/10/07 02:04:18;;;;;;;7.40;2.80;;;;;;;-145.69;63.00;52188.91;5030168;28;20206;-82
2023/10/07 02:06:51;;;;;;;11.03;2.60;;;;;;;-145.69;63.05;52224.56;5030082;28;20202;-82
2023/10/07 02:09:25;;;;;;;4.57;2.17;;;;;;;-145.69;62.94;52196.84;5030382;28;20210;-81
2023/10/07 02:11:55;;;;;;;8.77;2.40;;;;;;;-145.69;62.39;52236.44;5030340;28;20199;-81
2023/10/07 02:14:24;;;;;;;6.43;2.33;;;;;;;-145.69;62.62;52224.56;5030055;28;20628;-82
2023/10/07 02:16:51;;;;;;;7.00;2.77;;;;;;;-145.69;62.53;52214.66;5030012;28;20705;-82
2023/10/07 02:19:28;;;;;;;7.63;2.63;;;;;;;-145.69;62.48;52194.88;5030078;28;20208;-81
2023/10/07 02:21:59;;;;;;;5.10;2.07;;;;;;;-145.69;61.92;52220.59;5030298;28;20654;-82
2023/10/07 02:24:30;;;;;;;7.28;2.60;;;;;;;-145.69;62.53;52159.22;5098094;27;20433;-82
2023/10/07 02:27:00;;;;;;;5.13;1.93;;;;;;;-145.69;61.56;52186.94;5126619;27;20193;-82
2023/10/07 02:29:28;;;;;;;9.43;2.30;;;;;;;-145.69;61.72;52220.59;5134180;27;20257;-82
2023/10/07 02:32:05;;;;;;;6.30;2.60;;;;;;;-145.69;61.90;52238.44;5049525;27;20212;-82
2023/10/07 02:34:33;;;;;;;5.57;2.53;;;;;;;-145.69;61.40;52186.94;5029485;28;20212;-82
2023/10/07 02:37:11;;;;;;;7.85;2.70;;;;;;;-145.69;62.77;52234.47;5028902;28;20497;-82
2023/10/07 02:39:45;;;;;;;6.67;2.47;;;;;;;-145.69;62.34;52244.38;5029901;28;20547;-82
2023/10/07 02:42:15;;;;;;;6.77;2.57;;;;;;;-145.69;62.57;52206.75;5029811;28;20203;-82
2023/10/07 02:44:46;;;;;;;5.30;2.30;;;;;;;-145.69;62.43;52206.75;5030031;28;20294;-82
2023/10/07 02:47:12;;;;;;;4.20;1.93;;;;;;;-145.69;62.22;52236.44;5029791;28;20196;-82
2023/10/07 02:49:39;;;;;;;8.43;2.83;;;;;;;-145.69;62.51;52204.75;5029593;28;20784;-82
2023/10/07 02:52:06;;;;;;;6.77;2.30;;;;;;;-145.69;62.19;52224.56;5029910;28;20555;-82
2023/10/07 02:54:33;;;;;;;5.87;2.23;;;;;;;-145.69;62.09;52230.50;5029600;28;20200;-82
2023/10/07 02:57:07;;;;;;;8.53;2.23;;;;;;;-145.69;62.18;52202.78;5029802;28;20231;-82
2023/10/07 02:59:36;;;;;;;8.40;2.80;;;;;;;-145.69;61.76;52224.56;5029833;28;20224;-82
2023/10/07 03:02:26;;;;;;;6.57;2.50;;;;;;;-145.69;61.62;52196.84;5029778;28;20204;-82
2023/10/07 03:05:12;;;;;;;6.53;2.50;;;;;;;-145.69;62.06;52210.72;5029213;28;20200;-83
2023/10/07 03:07:42;;;;;;;6.43;2.40;;;;;;;-145.69;62.02;52206.75;5029238;28;20277;-81
2023/10/07 03:10:16;;;;;;;6.10;2.27;;;;;;;-145.69;61.94;52214.66;5029561;28;20204;-82
2023/10/07 03:12:47;;;;;;;6.37;2.23;;;;;;;-145.69;62.38;52220.59;5030607;28;20206;-82
2023/10/07 03:15:28;;;;;;;4.83;2.40;;;;;;;-145.69;62.33;52220.59;5032950;28;20199;-83
2023/10/07 03:17:55;;;;;;;4.97;2.40;;;;;;;-145.69;61.68;52218.63;5033243;28;20227;-82
2023/10/07 03:20:28;;;;;;;6.57;2.37;;;;;;;-145.69;62.26;52202.78;5032921;28;20236;-83
2023/10/07 03:23:15;;;;;;;10.87;2.80;;;;;;;-145.69;62.63;52234.47;5031949;28;20434;-82
2023/10/07 03:26:05;;;;;;;7.00;2.43;;;;;;;-145.69;62.03;52186.94;5032597;28;20719;-81
2023/10/07 03:28:35;;;;;;;4.93;2.40;;;;;;;-145.69;62.20;52278.03;5032816;28;20219;-82
2023/10/07 03:31:08;;;;;;;4.97;2.30;;;;;;;-145.69;61.89;52226.53;5032668;28;20208;-82
2023/10/07 03:33:45;;;;;;;5.80;2.40;;;;;;;-145.69;61.94;52244.38;5032323;28;20203;-82
2023/10/07 03:36:30;;;;;;;6.10;2.40;;;;;;;-145.69;61.66;52208.72;5032294;28;20270;-82
2023/10/07 03:39:17;;;;;;;6.97;2.70;;;;;;;-145.69;61.79;52234.47;5032686;28;20255;-82
2023/10/07 03:41:47;;;;;;;7.23;2.40;;;;;;;-145.69;62.09;52234.47;5032691;28;20253;-82
2023/10/07 03:44:14;;;;;;;4.80;2.10;;;;;;;-145.69;61.90;52214.66;5032369;28;20592;-82
2023/10/07 03:46:43;;;;;;;9.43;2.33;;;;;;;-145.69;62.00;52194.88;5032287;28;20208;-82
2023/10/07 03:49:10;;;;;;;6.60;2.43;;;;;;;-145.69;62.26;52202.78;5032558;28;20554;-81
2023/10/07 03:51:36;;;;;;;6.50;2.57;;;;;;;-145.69;61.69;52226.53;5032539;28;20245;-82
2023/10/07 03:54:10;;;;;;;6.30;2.80;;;;;;;-145.69;62.46;52212.69;5032327;28;20211;-82
2023/10/07 03:56:36;;;;;;;7.63;2.50;;;;;;;-145.69;62.06;52214.66;5032169;28;20651;-82
2023/10/07 03:59:05;;;;;;;6.13;2.50;;;;;;;-145.69;61.89;52210.72;5117531;27;20673;-82
2023/10/07 04:01:35;;;;;;;7.43;2.87;;;;;;;-145.69;61.87;52202.78;5117291;27;20603;-82
2023/10/07 04:04:06;;;;;;;8.40;2.90;;;;;;;-145.69;61.89;52222.59;5032036;28;20212;-82
2023/10/07 04:06:34;;;;;;;8.30;2.37;;;;;;;-145.69;61.99;52210.72;5032074;28;20600;-82
2023/10/07 04:09:07;;;;;;;5.23;2.17;;;;;;;-145.69;62.01;52214.66;5030940;28;20243;-82
2023/10/07 04:11:36;;;;;;;10.90;2.83;;;;;;;-145.69;62.52;52206.75;5032073;28;20204;-82
2023/10/07 04:14:07;;;;;;;8.47;2.77;;;;;;;-145.69;62.35;52218.63;5032180;28;20211;-82
2023/10/07 04:16:36;;;;;;;7.10;2.50;;;;;;;-145.69;62.83;52210.72;5032044;28;20319;-82
2023/10/07 04:19:30;;;;;;;7.53;2.80;;;;;;;-145.69;62.59;52210.72;5031826;28;20204;-81
2023/10/07 04:21:58;;;;;;;6.63;2.40;;;;;;;-145.69;62.34;52198.81;5035267;27;20200;-82
2023/10/07 04:24:26;;;;;;;6.37;2.77;;;;;;;-145.69;62.34;52262.19;5031922;28;20608;-81
2023/10/07 04:26:54;;;;;;;4.93;2.20;;;;;;;-145.69;62.81;52206.75;5082546;27;20234;-82
2023/10/07 04:29:23;;;;;;;5.47;2.30;;;;;;;-145.69;62.72;52218.63;5136025;27;20654;-81
2023/10/07 04:31:51;;;;;;;5.90;2.27;;;;;;;-145.69;62.73;52192.88;5106275;27;20206;-81
2023/10/07 04:34:19;;;;;;;4.57;2.00;;;;;;;-145.69;62.51;52218.63;5031877;28;20237;-82
2023/10/07 04:39:31;;;;;;;6.90;2.67;;;;;;;-145.69;63.23;52254.28;5035658;27;20260;-82
2023/10/07 04:41:57;;;;;;;9.60;2.80;;;;;;;-145.69;62.79;52238.44;5135925;27;20536;-82
2023/10/07 04:47:27;;;;;;;6.50;2.50;;;;;;;-145.69;63.87;52232.50;5100843;27;20208;-82
2023/10/07 04:49:59;;;;;;;8.70;2.37;;;;;;;-145.69;63.15;52212.69;5135674;27;20212;-82
2023/10/07 04:52:26;;;;;;;5.97;2.53;;;;;;;-145.69;63.64;52226.53;5135658;27;20225;-83
2023/10/07 04:54:53;;;;;;;8.27;3.17;;;;;;;-145.69;64.11;52224.56;5135688;27;20284;-83
2023/10/07 04:57:39;;;;;;;8.27;2.63;;;;;;;-145.69;63.26;52254.28;5135421;27;20221;-82
2023/10/07 05:00:08;;;;;;;5.77;2.57;;;;;;;-145.69;63.45;52214.66;5135473;27;20283;-82
2023/10/07 05:02:34;;;;;;;8.00;2.93;;;;;;;-145.69;63.99;52218.63;5074562;27;20228;-82
2023/10/07 05:05:13;;;;;;;6.27;2.60;;;;;;;-145.69;63.90;52226.53;5030967;28;20202;-83
2023/10/07 05:07:43;;;;;;;4.73;2.20;;;;;;;-145.69;63.46;52274.06;5030935;28;20237;-82
2023/10/07 05:10:12;;;;;;;5.93;2.50;;;;;;;-145.69;64.12;52202.78;5031311;28;20623;-83
2023/10/07 05:12:39;;;;;;;5.73;2.53;;;;;;;-145.69;63.67;52222.59;5031259;28;20214;-83
2023/10/07 05:15:08;;;;;;;6.67;2.33;;;;;;;-145.69;63.61;52173.09;5031269;28;20207;-83
2023/10/07 05:17:36;;;;;;;6.00;2.60;;;;;;;-145.69;63.98;52226.53;5030854;28;20253;-83
2023/10/07 05:20:24;;;;;;;3.73;1.83;;;;;;;-145.69;64.23;52214.66;5031270;28;20204;-83
2023/10/07 05:22:53;;;;;;;6.43;2.63;;;;;;;-145.69;64.14;52218.63;5031127;28;20664;-83
2023/10/07 05:25:21;;;;;;;6.10;2.70;;;;;;;-145.69;64.05;52218.63;5031158;28;20196;-82
2023/10/07 05:27:50;;;;;;;6.43;2.33;;;;;;;-145.69;63.78;52208.72;5030611;28;20229;-82
2023/10/07 05:30:18;;;;;;;5.80;2.53;;;;;;;-145.69;64.51;52200.81;5030940;28;20196;-82
2023/10/07 05:32:46;;;;;;;6.10;2.37;;;;;;;-145.69;64.28;52246.34;5030258;28;20223;-83
2023/10/07 05:35:18;;;;;;;5.70;2.27;;;;;;;-145.69;64.66;52250.31;5030130;28;20236;-83
2023/10/07 05:37:49;;;;;;;5.80;2.73;;;;;;;-145.69;64.44;52228.53;5031014;28;20323;-83
2023/10/07 05:40:23;;;;;;;7.30;2.40;;;;;;;-145.69;64.29;52242.38;5030854;28;20211;-83
2023/10/07 05:42:50;;;;;;;6.27;2.60;;;;;;;-145.69;64.91;52216.66;5030706;28;20223;-82
2023/10/07 05:45:17;;;;;;;6.60;2.33;;;;;;;-145.69;64.38;52242.38;5030686;28;20196;-82
2023/10/07 05:47:45;;;;;;;5.57;2.40;;;;;;;-145.69;64.59;52218.63;5030790;28;20211;-82
2023/10/07 05:50:13;;;;;;;5.63;2.37;;;;;;;-145.69;64.41;52194.88;5030061;28;20279;-82
2023/10/07 05:52:40;;;;;;;8.07;2.60;;;;;;;-145.69;63.96;52226.53;5030774;28;20597;-82
2023/10/07 05:55:10;;;;;;;5.10;2.23;;;;;;;-145.69;64.14;52232.50;5030719;28;20208;-82
2023/10/07 05:57:36;;;;;;;8.50;2.40;;;;;;;-145.69;64.01;52230.50;5030229;28;20335;-83
2023/10/07 06:00:05;;;;;;;6.43;2.63;;;;;;;-145.69;64.61;52230.50;5030294;28;20219;-82
2023/10/07 06:02:34;;;;;;;6.83;2.30;;;;;;;-145.69;64.00;52196.84;5029905;28;20213;-82
2023/10/07 06:05:00;;;;;;;5.73;2.23;;;;;;;-145.69;64.63;52216.66;5030306;28;20211;-82
2023/10/07 06:07:28;;;;;;;6.20;2.33;;;;;;;-145.69;64.34;52210.72;5044760;27;20204;-82
2023/10/07 06:09:55;;;;;;;7.90;2.80;;;;;;;-145.69;64.91;52206.75;5030337;28;20665;-83
2023/10/07 06:12:24;;;;;;;5.57;2.50;;;;;;;-145.69;64.96;52202.78;5030099;28;20203;-82
2023/10/07 06:14:53;;;;;;;6.87;2.43;;;;;;;-145.69;64.59;52218.63;5030067;28;20693;-82
2023/10/07 06:17:20;;;;;;;7.57;2.63;;;;;;;-145.69;64.79;52234.47;5030094;28;20227;-83
2023/10/07 06:19:46;;;;;;;6.23;2.37;;;;;;;-145.69;64.49;52198.81;5030506;28;20253;-81
2023/10/07 06:22:15;;;;;;;5.13;2.23;;;;;;;-145.69;64.51;52226.53;5037858;28;20200;-82
2023/10/07 06:24:46;;;;;;;7.53;2.50;;;;;;;-145.69;63.82;52206.75;5030008;28;20208;-82
2023/10/07 06:27:13;;;;;;;11.80;2.87;;;;;;;-145.69;64.32;52175.06;5029843;28;20212;-82
2023/10/07 06:29:43;;;;;;;6.70;2.60;;;;;;;-145.69;63.92;52222.59;5029949;28;20681;-82
2023/10/07 06:34:56;;;;;;;5.10;2.37;;;;;;;-145.69;63.99;52228.53;5043456;28;20239;-82
2023/10/07 06:37:28;;;;;;;7.63;2.70;;;;;;;-145.69;64.17;52210.72;5133679;27;20252;-82
2023/10/07 06:39:58;;;;;;;7.40;2.80;;;;;;;-145.69;64.31;52226.53;5037792;27;20224;-82
2023/10/07 06:42:26;;;;;;;5.60;2.30;;;;;;;-145.69;63.63;52188.91;5029930;28;20206;-81
2023/10/07 06:44:55;;;;;;;6.83;2.77;;;;;;;-145.69;64.01;52186.94;5028513;28;20197;-82
2023/10/07 06:47:24;;;;;;;3.87;2.20;;;;;;;-145.69;64.12;52212.69;5028327;28;20269;-82
2023/10/07 06:49:52;;;;;;;6.93;2.60;;;;;;;-145.69;64.19;52204.75;5033183;28;20266;-81
2023/10/07 06:52:20;;;;;;;6.87;2.47;;;;;;;-145.69;64.17;52210.72;5033279;28;20207;-81
2023/10/07 06:54:47;;;;;;;14.03;2.83;;;;;;;-145.69;64.14;52210.72;5033222;28;20207;-81
2023/10/07 06:57:17;;;;;;;6.87;2.93;;;;;;;-145.69;63.85;52179.03;5032964;28;20227;-81
2023/10/07 06:59:45;;;;;;;7.27;3.10;;;;;;;-145.69;63.82;52204.75;5036694;27;20196;-81
2023/10/07 07:02:18;;;;;;;6.27;3.00;;;;;;;-145.69;63.51;52216.66;5031267;28;20192;-82
2023/10/07 07:04:44;;;;;;;29.03;10.40;;;;;;;-145.69;63.07;52206.75;5032723;28;20189;-81
2023/10/07 07:07:11;;;;;;;26.00;8.30;;;;;;;-145.69;62.94;52200.81;5032869;28;20291;-81
2023/10/07 07:09:51;;;;;;;15.37;5.43;;;;;;;-145.69;62.51;52188.91;5032997;28;20196;-81
2023/10/07 07:12:21;;;;;;;20.23;5.10;;;;;;;-145.69;62.98;52210.72;5031602;28;20238;-81
2023/10/07 07:14:50;;;;;;;10.70;4.40;;;;;;;-145.69;62.67;52192.88;5032637;28;20269;-81
2023/10/07 07:17:30;;;;;;;13.10;4.90;;;;;;;-145.69;62.84;52171.09;5032542;28;20231;-81
2023/10/07 07:22:42;;;;;;;7.37;3.60;;;;;;;-145.69;62.14;52188.91;5018139;28;20295;-81
2023/10/07 07:25:12;;;;;;;9.07;3.33;;;;;;;-145.69;62.45;52200.81;5052322;28;20211;-81
2023/10/07 07:27:45;;;;;;;6.60;2.77;;;;;;;-145.69;62.12;52202.78;5052570;28;20595;-81
2023/10/07 07:30:19;;;;;;;7.53;3.07;;;;;;;-145.69;61.84;52234.47;5052717;28;20200;-80
2023/10/07 07:32:46;;;;;;;8.10;3.23;;;;;;;-145.69;62.01;52194.88;5041023;28;20196;-81
2023/10/07 07:35:12;;;;;;;8.87;3.67;;;;;;;-145.69;61.62;52181.00;5032076;28;20709;-81
2023/10/07 07:37:40;;;;;;;10.37;3.00;;;;;;;-145.69;61.80;52173.09;5032276;28;20245;-81
2023/10/07 07:40:09;;;;;;;7.17;2.80;;;;;;;-145.69;61.46;52196.84;5031589;28;20196;-81
2023/10/07 07:42:36;;;;;;;10.33;2.67;;;;;;;-145.69;60.69;52161.19;5032444;28;20200;-80
2023/10/07 07:45:15;;;;;;;6.13;2.77;;;;;;;-145.69;61.17;52169.13;5031849;28;20197;-81
2023/10/07 07:47:41;;;;;;;7.70;2.53;;;;;;;-145.69;60.65;52145.34;5032455;28;20665;-81
2023/10/07 07:50:09;;;;;;;7.50;2.90;;;;;;;-145.69;60.36;52149.31;5032076;28;20200;-81
2023/10/07 07:52:35;;;;;;;5.93;2.67;;;;;;;-145.69;59.38;52175.06;5032024;28;20211;-80
2023/10/07 07:55:02;;;;;;;5.53;2.43;;;;;;;-145.69;59.27;52163.19;5032012;28;20215;-80
2023/10/07 07:57:28;;;;;;;10.47;2.53;;;;;;;-145.69;58.22;52181.00;5032149;28;20224;-81
2023/10/07 07:59:55;;;;;;;7.47;2.57;;;;;;;-145.69;58.41;52137.44;5031662;28;20207;-81
2023/10/07 08:02:24;;;;;;;8.37;2.70;;;;;;;-145.69;56.98;52151.28;5030847;28;20600;-80
2023/10/07 08:04:50;;;;;;;11.27;3.40;;;;;;;-145.69;57.20;52171.09;5031678;28;20207;-81
2023/10/07 08:07:24;;;;;;;5.63;2.40;;;;;;;-145.69;57.14;52127.53;5031130;28;20215;-80
2023/10/07 08:09:53;;;;;;;12.20;2.20;;;;;;;-145.69;55.20;52131.50;5032175;28;20208;-81
2023/10/07 08:12:28;;;;;;;6.40;2.80;;;;;;;-145.69;55.07;52141.41;5032108;28;20249;-81
2023/10/07 08:14:58;;;;;;;8.93;2.47;;;;;;;-145.69;54.29;52135.47;5108173;27;20680;-81
2023/10/07 08:17:27;;;;;;;8.07;2.45;;;;;;;-145.69;52.13;52143.38;5136147;27;20571;-80
2023/10/07 08:19:57;;;;;;;6.30;2.13;;;;;;;-145.69;50.34;52141.41;5135817;27;20650;-81
2023/10/07 08:22:28;;;;;;;5.80;2.55;;;;;;;-145.69;47.05;52143.38;5136619;27;20633;-81
2023/10/07 08:25:00;;;;;;;4.75;1.98;;;;;;;-145.69;48.11;52115.66;5136233;27;20240;-82
2023/10/07 08:27:44;;;;;;;6.20;1.90;;;;;;;-145.69;46.55;52087.94;5135875;27;20193;-80
2023/10/07 08:30:30;;;;;;;5.32;2.50;;;;;;;-145.69;44.60;52091.88;5136221;27;20232;-81
2023/10/07 08:33:05;;;;;;;9.43;2.60;;;;;;;-145.69;42.35;52091.88;5071101;27;20198;-81
2023/10/07 08:35:35;;;;;;;5.70;2.40;;;;;;;-145.69;41.75;52066.16;5101280;27;20602;-81
2023/10/07 08:38:19;;;;;;;7.03;2.70;;;;;;;-145.69;40.13;52095.84;5065965;27;20224;-81
2023/10/07 08:40:56;;;;;;;8.20;2.60;;;;;;;-145.69;39.47;52068.13;5031748;28;20204;-81
2023/10/07 08:43:32;;;;;;;6.00;2.00;;;;;;;-145.69;39.46;52040.41;5031943;28;20210;-79
2023/10/07 08:46:01;;;;;;;5.40;2.58;;;;;;;-145.69;38.83;52032.47;5031310;28;20211;-81
2023/10/07 08:48:36;;;;;;;5.93;2.30;;;;;;;-145.69;39.50;52050.31;5031495;28;20203;-81
2023/10/07 08:51:10;;;;;;;6.93;2.40;;;;;;;-145.69;39.48;52052.28;5032045;28;20271;-81
2023/10/07 08:53:37;;;;;;;7.88;2.67;;;;;;;-145.69;39.94;52028.53;5031708;28;20287;-79
2023/10/07 08:56:08;;;;;;;11.40;2.83;;;;;;;-145.69;39.83;52107.72;5031921;28;20205;-79
2023/10/07 08:58:40;;;;;;;6.63;2.40;;;;;;;-145.69;39.70;52046.34;5031213;28;20231;-79
2023/10/07 09:01:17;;;;;;;5.68;2.13;;;;;;;-145.69;39.59;52032.47;5031454;28;20627;-79
2023/10/07 09:03:49;;;;;;;7.03;2.33;;;;;;;-145.69;38.70;52046.34;5030709;28;20223;-79
2023/10/07 09:06:16;;;;;;;5.45;2.20;;;;;;;-145.69;37.44;52026.53;5031802;28;20200;-79
2023/10/07 09:08:44;;;;;;;6.15;2.45;;;;;;;-145.69;36.34;52016.66;5031087;28;20200;-80
2023/10/07 09:11:18;;;;;;;6.57;2.33;;;;;;;-145.69;36.19;51986.94;5030228;28;20204;-81
2023/10/07 09:13:46;;;;;;;8.48;2.28;;;;;;;-145.69;36.07;52024.56;5031137;28;20211;-81
2023/10/07 09:16:13;;;;;;;5.43;2.53;;;;;;;-145.69;36.61;52024.56;5031104;28;20336;-81
2023/10/07 09:18:41;;;;;;;6.53;2.33;;;;;;;-145.69;36.98;52008.72;5029274;28;20238;-81
2023/10/07 09:21:19;;;;;;;5.32;2.10;;;;;;;-145.69;36.50;51981.00;5030457;28;20219;-81
2023/10/07 09:23:48;;;;;;;5.85;2.22;;;;;;;-145.69;34.97;51981.00;5030778;28;20600;-81
2023/10/07 09:26:23;;;;;;;6.43;2.30;;;;;;;-145.69;35.19;51998.81;5030383;28;20204;-80
2023/10/07 09:28:58;;;;;;;6.82;2.10;;;;;;;-145.69;33.28;51984.97;5031220;28;20651;-81
2023/10/07 09:31:26;;;;;;;4.03;1.65;;;;;;;-145.69;31.45;51984.97;5030952;28;20600;-80
2023/10/07 09:33:55;;;;;;;10.00;2.25;;;;;;;-145.69;31.39;51969.13;5030538;28;20283;-80
2023/10/07 09:36:33;;;;;;;5.25;1.92;;;;;;;-145.69;29.40;51933.47;5030936;28;20232;-83
2023/10/07 09:39:15;;;;;;;5.10;2.03;;;;;;;-145.69;29.42;51945.34;5031022;28;20261;-80
2023/10/07 09:41:45;;;;;;;4.85;2.00;;;;;;;-145.69;29.83;51937.44;5031127;28;20196;-81
2023/10/07 09:44:21;;;;;;;4.10;2.00;;;;;;;-145.69;30.29;51947.34;5030792;28;20231;-81
2023/10/07 09:46:52;;;;;;;5.07;2.15;;;;;;;-145.69;29.58;51937.44;5030556;28;20215;-81
2023/10/07 09:49:22;;;;;;;7.63;2.47;;;;;;;-145.69;29.67;51943.38;5030288;28;20204;-80
2023/10/07 09:51:56;;;;;;;5.55;2.10;;;;;;;-145.69;28.85;51925.56;5030737;28;20204;-81
2023/10/07 09:54:47;;;;;;;5.03;2.33;;;;;;;-145.69;28.57;51901.78;5030181;28;20204;-80
2023/10/07 09:57:30;;;;;;;6.00;2.20;;;;;;;-145.69;28.55;51901.78;5029881;28;20666;-81
2023/10/07 10:03:12;;;;;;;3.08;1.70;;;;;;;-145.69;26.36;51915.66;5030193;28;20197;-81
2023/10/07 10:05:58;;;;;;;4.88;1.73;;;;;;;-145.69;25.81;51893.88;5010810;28;20201;-81
2023/10/07 10:08:56;;;;;;;4.55;2.03;;;;;;;-145.69;26.43;51889.91;5010408;28;20200;-80
2023/10/07 10:11:44;;;;;;;3.00;1.55;;;;;;;-145.69;27.25;51868.13;5084195;27;20200;-81
2023/10/07 10:14:16;;;;;;;4.55;2.10;;;;;;;-145.69;27.18;51903.78;5134242;27;20201;-80
2023/10/07 10:16:50;;;;;;;6.60;2.00;;;;;;;-145.69;25.81;51878.03;5134597;27;20204;-81
2023/10/07 10:19:44;;;;;;;3.17;1.60;;;;;;;-145.69;26.23;51885.94;5133817;27;20238;-81
2023/10/07 10:22:12;;;;;;;3.78;1.63;;;;;;;-145.69;25.99;51897.84;5133937;27;20280;-80
2023/10/07 10:24:43;;;;;;;4.38;1.75;;;;;;;-145.69;26.46;51897.84;5118620;27;20204;-80
2023/10/07 10:27:10;;;;;;;4.47;1.90;;;;;;;-145.69;26.79;51901.78;5134193;27;20201;-81
2023/10/07 10:29:52;;;;;;;4.70;2.00;;;;;;;-145.69;26.56;51882.00;5133720;27;20631;-80
2023/10/07 10:32:28;;;;;;;6.00;2.20;;;;;;;-145.69;26.67;51885.94;5109748;27;20189;-80
2023/10/07 10:34:55;;;;;;;4.55;1.92;;;;;;;-145.69;27.50;51909.72;5029813;28;20232;-81
2023/10/07 10:37:23;;;;;;;5.65;2.45;;;;;;;-145.69;26.84;51901.78;5030204;28;20215;-80
2023/10/07 10:39:53;;;;;;;6.80;2.22;;;;;;;-145.69;26.77;51905.75;5030492;28;20594;-81
2023/10/07 10:42:24;;;;;;;4.47;1.83;;;;;;;-145.69;26.74;51885.94;5029661;28;20663;-80
2023/10/07 10:44:53;;;;;;;4.70;1.95;;;;;;;-145.69;26.43;51883.97;5063053;28;20192;-80
2023/10/07 10:47:21;;;;;;;5.60;2.10;;;;;;;-145.69;26.82;51925.56;5134334;27;20204;-81
2023/10/07 10:49:54;;;;;;;6.00;2.40;;;;;;;-145.69;26.44;51917.63;5134084;27;20206;-79
2023/10/07 10:52:21;;;;;;;4.95;1.92;;;;;;;-145.69;26.44;51905.75;5133943;27;20235;-80
2023/10/07 10:54:48;;;;;;;6.70;2.25;;;;;;;-145.69;26.21;51876.06;5133772;27;20197;-79
2023/10/07 10:57:19;;;;;;;4.63;2.08;;;;;;;-145.69;27.43;51885.94;5133763;27;20253;-79
2023/10/07 10:59:47;;;;;;;6.80;2.30;;;;;;;-145.69;26.79;51885.94;5133643;27;20231;-79
2023/10/07 11:02:17;;;;;;;5.13;2.00;;;;;;;-145.69;26.38;51862.19;5113912;27;20195;-79
2023/10/07 11:04:45;;;;;;;5.50;2.50;;;;;;;-145.69;25.93;51874.06;5029135;28;20289;-80
2023/10/07 11:07:11;;;;;;;5.97;2.55;;;;;;;-145.69;25.91;51876.06;5028855;28;20816;-80
2023/10/07 11:09:38;;;;;;;4.03;1.90;;;;;;;-145.69;26.20;51864.16;5029874;28;20261;-79
2023/10/07 11:12:09;;;;;;;5.22;2.15;;;;;;;-145.69;25.66;51866.16;5029157;28;20378;-79
2023/10/07 11:14:40;;;;;;;4.97;2.30;;;;;;;-145.69;28.35;51868.13;5029130;28;20200;-79
2023/10/07 11:17:09;;;;;;;8.38;2.58;;;;;;;-145.69;28.09;51876.06;5029748;28;20663;-80
2023/10/07 11:19:42;;;;;;;6.55;2.05;;;;;;;-145.69;28.55;51874.06;5029366;28;20238;-80
2023/10/07 11:22:13;;;;;;;6.18;2.30;;;;;;;-145.69;27.62;51850.31;5029344;28;20204;-80
2023/10/07 11:24:40;;;;;;;4.47;2.08;;;;;;;-145.69;28.01;51905.75;5029691;28;20207;-80
2023/10/07 11:27:08;;;;;;;4.97;1.90;;;;;;;-145.69;27.21;51893.88;5029290;28;20216;-79
2023/10/07 11:29:36;;;;;;;6.60;2.60;;;;;;;-145.69;28.38;51889.91;5029179;28;20204;-79
2023/10/07 11:32:06;;;;;;;8.65;3.00;;;;;;;-145.69;26.95;51882.00;5028604;28;20212;-80
2023/10/07 11:34:38;;;;;;;5.63;2.22;;;;;;;-145.69;25.78;51862.19;5030925;28;20669;-79
2023/10/07 11:37:09;;;;;;;5.55;2.00;;;;;;;-145.69;25.93;51870.13;5032509;28;20204;-79
2023/10/07 11:39:43;;;;;;;5.97;2.17;;;;;;;-145.69;26.18;51868.13;5031950;28;20232;-79
2023/10/07 11:42:11;;;;;;;5.15;2.20;;;;;;;-145.69;26.45;51868.13;5033068;28;20295;-80
2023/10/07 11:44:38;;;;;;;9.45;2.30;;;;;;;-145.69;26.56;51878.03;5040678;27;20220;-82
2023/10/07 11:47:07;;;;;;;7.43;2.28;;;;;;;-145.69;25.62;51840.41;5032686;28;20682;-81
2023/10/07 11:49:34;;;;;;;5.85;2.15;;;;;;;-145.69;25.85;51830.50;5032731;28;20200;-79